sensor_id;sensor_type;location;lat;lon;timestamp;temperature;humidity
11264;DHT22;5689;48.798;9.070;2022-09-13T00:01:22;17.40;99.90
11264;DHT22;5689;48.798;9.070;2022-09-13T00:03:50;17.10;99.90
11264;DHT22;5689;48.798;9.070;2022-09-13T00:06:19;16.70;99.90
11264;DHT22;5689;48.798;9.070;2022-09-13T00:08:47;16.60;99.90
11264;DHT22;5689;48.798;9.070;2022-09-13T00:11:18;16.50;99.90
11264;DHT22;5689;48.798;9.070;2022-09-13T00:13:48;16.50;99.90
11264;DHT22;5689;48.798;9.070;2022-09-13T00:16:18;16.40;99.90
11264;DHT22;5689;48.798;9.070;2022-09-13T00:18:47;16.70;99.90
11264;DHT22;5689;48.798;9.070;2022-09-13T00:21:17;16.50;99.90
11264;DHT22;5689;48.798;9.070;2022-09-13T00:23:47;16.40;99.90
11264;DHT22;5689;48.798;9.070;2022-09-13T00:26:19;16.40;99.90
11264;DHT22;5689;48.798;9.070;2022-09-13T00:28:48;16.30;99.90
11264;DHT22;5689;48.798;9.070;2022-09-13T00:31:19;16.20;99.90
11264;DHT22;5689;48.798;9.070;2022-09-13T00:33:47;16.00;99.90
11264;DHT22;5689;48.798;9.070;2022-09-13T00:36:16;16.10;99.90
11264;DHT22;5689;48.798;9.070;2022-09-13T00:38:44;16.10;99.90
11264;DHT22;5689;48.798;9.070;2022-09-13T00:41:14;16.10;99.90
11264;DHT22;5689;48.798;9.070;2022-09-13T00:43:47;16.00;99.90
11264;DHT22;5689;48.798;9.070;2022-09-13T00:46:31;16.10;99.90
11264;DHT22;5689;48.798;9.070;2022-09-13T00:49:04;16.00;99.90
11264;DHT22;5689;48.798;9.070;2022-09-13T00:51:36;16.00;99.90
11264;DHT22;5689;48.798;9.070;2022-09-13T00:54:05;15.90;99.90
11264;DHT22;5689;48.798;9.070;2022-09-13T00:56:36;16.00;99.90
11264;DHT22;5689;48.798;9.070;2022-09-13T00:59:11;16.70;99.90
11264;DHT22;5689;48.798;9.070;2022-09-13T01:01:43;16.30;99.90
11264;DHT22;5689;48.798;9.070;2022-09-13T01:04:17;16.60;99.90
11264;DHT22;5689;48.798;9.070;2022-09-13T01:06:48;16.90;99.90
11264;DHT22;5689;48.798;9.070;2022-09-13T01:09:17;17.20;99.90
11264;DHT22;5689;48.798;9.070;2022-09-13T01:11:48;17.30;99.90
11264;DHT22;5689;48.798;9.070;2022-09-13T01:14:23;17.40;99.90
11264;DHT22;5689;48.798;9.070;2022-09-13T01:16:52;17.50;99.90
11264;DHT22;5689;48.798;9.070;2022-09-13T01:19:20;17.60;99.90
11264;DHT22;5689;48.798;9.070;2022-09-13T01:22:26;17.60;99.90
11264;DHT22;5689;48.798;9.070;2022-09-13T01:28:40;17.60;99.90
11264;DHT22;5689;48.798;9.070;2022-09-13T01:31:19;17.50;99.90
11264;DHT22;5689;48.798;9.070;2022-09-13T01:34:01;17.60;99.90
11264;DHT22;5689;48.798;9.070;2022-09-13T01:36:53;17.20;99.90
11264;DHT22;5689;48.798;9.070;2022-09-13T01:39:34;16.90;99.90
11264;DHT22;5689;48.798;9.070;2022-09-13T01:42:13;16.80;99.90
11264;DHT22;5689;48.798;9.070;2022-09-13T01:44:55;16.90;99.90
11264;DHT22;5689;48.798;9.070;2022-09-13T01:47:30;16.80;99.90
11264;DHT22;5689;48.798;9.070;2022-09-13T01:50:11;17.00;99.90
11264;DHT22;5689;48.798;9.070;2022-09-13T01:52:44;17.20;99.90
11264;DHT22;5689;48.798;9.070;2022-09-13T01:55:26;17.30;99.90
11264;DHT22;5689;48.798;9.070;2022-09-13T01:58:04;17.50;99.90
11264;DHT22;5689;48.798;9.070;2022-09-13T02:00:39;17.40;99.90
11264;DHT22;5689;48.798;9.070;2022-09-13T02:03:13;17.40;99.90
11264;DHT22;5689;48.798;9.070;2022-09-13T02:05:44;17.40;99.90
11264;DHT22;5689;48.798;9.070;2022-09-13T02:08:18;17.40;99.90
11264;DHT22;5689;48.798;9.070;2022-09-13T02:10:52;17.30;99.90
11264;DHT22;5689;48.798;9.070;2022-09-13T02:13:25;17.40;99.90
11264;DHT22;5689;48.798;9.070;2022-09-13T02:15:58;17.50;99.90
11264;DHT22;5689;48.798;9.070;2022-09-13T02:18:30;17.40;99.90
11264;DHT22;5689;48.798;9.070;2022-09-13T02:21:01;17.50;99.90
11264;DHT22;5689;48.798;9.070;2022-09-13T02:23:36;17.50;99.90
11264;DHT22;5689;48.798;9.070;2022-09-13T02:26:06;17.50;99.90
11264;DHT22;5689;48.798;9.070;2022-09-13T02:28:40;17.40;99.90
11264;DHT22;5689;48.798;9.070;2022-09-13T02:31:11;17.20;99.90
11264;DHT22;5689;48.798;9.070;2022-09-13T02:33:46;17.00;99.90
11264;DHT22;5689;48.798;9.070;2022-09-13T02:36:20;17.10;99.90
11264;DHT22;5689;48.798;9.070;2022-09-13T02:38:52;17.10;99.90
11264;DHT22;5689;48.798;9.070;2022-09-13T02:41:26;17.30;99.90
11264;DHT22;5689;48.798;9.070;2022-09-13T02:44:02;17.30;99.90
11264;DHT22;5689;48.798;9.070;2022-09-13T02:46:43;17.30;99.90
11264;DHT22;5689;48.798;9.070;2022-09-13T02:49:23;17.20;99.90
11264;DHT22;5689;48.798;9.070;2022-09-13T02:51:55;17.20;99.90
11264;DHT22;5689;48.798;9.070;2022-09-13T02:54:32;17.10;99.90
11264;DHT22;5689;48.798;9.070;2022-09-13T02:57:07;17.00;99.90
11264;DHT22;5689;48.798;9.070;2022-09-13T02:59:36;17.00;99.90
11264;DHT22;5689;48.798;9.070;2022-09-13T03:02:07;17.00;99.90
11264;DHT22;5689;48.798;9.070;2022-09-13T03:04:38;17.00;99.90
11264;DHT22;5689;48.798;9.070;2022-09-13T03:07:09;17.10;99.90
11264;DHT22;5689;48.798;9.070;2022-09-13T03:09:42;17.10;99.90
11264;DHT22;5689;48.798;9.070;2022-09-13T03:12:28;17.00;99.90
11264;DHT22;5689;48.798;9.070;2022-09-13T03:15:09;16.90;99.90
11264;DHT22;5689;48.798;9.070;2022-09-13T03:17:49;17.00;99.90
11264;DHT22;5689;48.798;9.070;2022-09-13T03:20:32;17.20;99.90
11264;DHT22;5689;48.798;9.070;2022-09-13T03:23:14;17.00;99.90
11264;DHT22;5689;48.798;9.070;2022-09-13T03:26:17;16.90;99.90
11264;DHT22;5689;48.798;9.070;2022-09-13T03:28:53;16.80;99.90
11264;DHT22;5689;48.798;9.070;2022-09-13T03:31:28;16.70;99.90
11264;DHT22;5689;48.798;9.070;2022-09-13T03:34:08;16.70;99.90
11264;DHT22;5689;48.798;9.070;2022-09-13T03:36:43;16.30;99.90
11264;DHT22;5689;48.798;9.070;2022-09-13T03:39:21;16.10;99.90
11264;DHT22;5689;48.798;9.070;2022-09-13T03:41:53;15.90;99.90
11264;DHT22;5689;48.798;9.070;2022-09-13T03:44:24;15.80;99.90
11264;DHT22;5689;48.798;9.070;2022-09-13T03:46:56;15.80;99.90
11264;DHT22;5689;48.798;9.070;2022-09-13T03:49:29;16.50;99.90
11264;DHT22;5689;48.798;9.070;2022-09-13T03:52:00;15.60;99.90
11264;DHT22;5689;48.798;9.070;2022-09-13T03:54:30;15.50;99.90
11264;DHT22;5689;48.798;9.070;2022-09-13T03:57:06;15.40;99.90
11264;DHT22;5689;48.798;9.070;2022-09-13T03:59:36;15.20;99.90
11264;DHT22;5689;48.798;9.070;2022-09-13T04:02:06;15.10;99.90
11264;DHT22;5689;48.798;9.070;2022-09-13T04:04:38;15.50;99.90
11264;DHT22;5689;48.798;9.070;2022-09-13T04:07:10;15.00;99.90
11264;DHT22;5689;48.798;9.070;2022-09-13T04:09:39;15.00;99.90
11264;DHT22;5689;48.798;9.070;2022-09-13T04:12:10;15.00;99.90
11264;DHT22;5689;48.798;9.070;2022-09-13T04:14:40;15.00;99.90
11264;DHT22;5689;48.798;9.070;2022-09-13T04:17:10;15.20;99.90
11264;DHT22;5689;48.798;9.070;2022-09-13T04:19:42;15.30;99.90
11264;DHT22;5689;48.798;9.070;2022-09-13T04:22:14;14.90;99.90
11264;DHT22;5689;48.798;9.070;2022-09-13T04:24:42;14.80;99.90
11264;DHT22;5689;48.798;9.070;2022-09-13T04:27:11;14.70;99.90
11264;DHT22;5689;48.798;9.070;2022-09-13T04:29:39;15.30;99.90
11264;DHT22;5689;48.798;9.070;2022-09-13T04:32:07;14.80;99.90
11264;DHT22;5689;48.798;9.070;2022-09-13T04:34:36;14.70;99.90
11264;DHT22;5689;48.798;9.070;2022-09-13T04:37:08;14.80;99.90
11264;DHT22;5689;48.798;9.070;2022-09-13T04:39:38;14.90;99.90
11264;DHT22;5689;48.798;9.070;2022-09-13T04:42:07;14.80;99.90
11264;DHT22;5689;48.798;9.070;2022-09-13T04:44:37;14.80;99.90
11264;DHT22;5689;48.798;9.070;2022-09-13T04:47:05;14.90;99.90
11264;DHT22;5689;48.798;9.070;2022-09-13T04:49:34;14.80;99.90
11264;DHT22;5689;48.798;9.070;2022-09-13T04:52:02;15.20;99.90
11264;DHT22;5689;48.798;9.070;2022-09-13T04:54:30;14.80;99.90
11264;DHT22;5689;48.798;9.070;2022-09-13T04:57:00;14.80;99.90
11264;DHT22;5689;48.798;9.070;2022-09-13T04:59:28;15.20;99.90
11264;DHT22;5689;48.798;9.070;2022-09-13T05:01:56;15.10;99.90
11264;DHT22;5689;48.798;9.070;2022-09-13T05:04:32;15.20;99.90
11264;DHT22;5689;48.798;9.070;2022-09-13T05:07:00;14.90;99.90
11264;DHT22;5689;48.798;9.070;2022-09-13T05:09:29;14.90;99.90
11264;DHT22;5689;48.798;9.070;2022-09-13T05:11:57;15.10;99.90
11264;DHT22;5689;48.798;9.070;2022-09-13T05:14:27;15.10;99.90
11264;DHT22;5689;48.798;9.070;2022-09-13T05:16:55;15.00;99.90
11264;DHT22;5689;48.798;9.070;2022-09-13T05:19:23;15.00;99.90
11264;DHT22;5689;48.798;9.070;2022-09-13T05:21:51;14.80;99.90
11264;DHT22;5689;48.798;9.070;2022-09-13T05:24:20;14.80;99.90
11264;DHT22;5689;48.798;9.070;2022-09-13T05:26:48;14.80;99.90
11264;DHT22;5689;48.798;9.070;2022-09-13T05:29:16;14.80;99.90
11264;DHT22;5689;48.798;9.070;2022-09-13T05:31:46;14.70;99.90
11264;DHT22;5689;48.798;9.070;2022-09-13T05:34:16;14.60;99.90
11264;DHT22;5689;48.798;9.070;2022-09-13T05:36:45;14.60;99.90
11264;DHT22;5689;48.798;9.070;2022-09-13T05:39:19;14.60;99.90
11264;DHT22;5689;48.798;9.070;2022-09-13T05:42:05;14.90;99.90
11264;DHT22;5689;48.798;9.070;2022-09-13T05:44:33;15.10;99.90
11264;DHT22;5689;48.798;9.070;2022-09-13T05:47:03;15.10;99.90
11264;DHT22;5689;48.798;9.070;2022-09-13T05:49:31;15.10;99.90
11264;DHT22;5689;48.798;9.070;2022-09-13T05:52:00;15.20;99.90
11264;DHT22;5689;48.798;9.070;2022-09-13T05:54:33;15.20;99.90
11264;DHT22;5689;48.798;9.070;2022-09-13T05:57:03;15.20;99.90
11264;DHT22;5689;48.798;9.070;2022-09-13T05:59:31;15.30;99.90
11264;DHT22;5689;48.798;9.070;2022-09-13T06:01:59;15.70;99.90
11264;DHT22;5689;48.798;9.070;2022-09-13T06:04:29;15.90;99.90
11264;DHT22;5689;48.798;9.070;2022-09-13T06:06:57;16.00;99.90
11264;DHT22;5689;48.798;9.070;2022-09-13T06:09:25;16.10;99.90
11264;DHT22;5689;48.798;9.070;2022-09-13T06:11:53;16.10;99.90
11264;DHT22;5689;48.798;9.070;2022-09-13T06:14:22;16.20;99.90
11264;DHT22;5689;48.798;9.070;2022-09-13T06:16:50;16.50;99.90
11264;DHT22;5689;48.798;9.070;2022-09-13T06:19:18;16.60;99.90
11264;DHT22;5689;48.798;9.070;2022-09-13T06:21:49;16.60;99.90
11264;DHT22;5689;48.798;9.070;2022-09-13T06:24:17;16.70;99.90
11264;DHT22;5689;48.798;9.070;2022-09-13T06:26:45;16.60;99.90
11264;DHT22;5689;48.798;9.070;2022-09-13T06:29:14;16.60;99.90
11264;DHT22;5689;48.798;9.070;2022-09-13T06:31:42;16.60;99.90
11264;DHT22;5689;48.798;9.070;2022-09-13T06:34:12;16.40;99.90
11264;DHT22;5689;48.798;9.070;2022-09-13T06:36:42;16.30;99.90
11264;DHT22;5689;48.798;9.070;2022-09-13T06:39:11;16.30;99.90
11264;DHT22;5689;48.798;9.070;2022-09-13T06:41:40;17.00;99.90
11264;DHT22;5689;48.798;9.070;2022-09-13T06:44:08;18.30;99.90
11264;DHT22;5689;48.798;9.070;2022-09-13T06:46:36;19.40;99.90
11264;DHT22;5689;48.798;9.070;2022-09-13T06:49:06;20.00;99.90
11264;DHT22;5689;48.798;9.070;2022-09-13T06:51:35;20.40;99.90
11264;DHT22;5689;48.798;9.070;2022-09-13T06:54:05;20.50;99.90
11264;DHT22;5689;48.798;9.070;2022-09-13T06:56:37;20.90;99.90
11264;DHT22;5689;48.798;9.070;2022-09-13T06:59:07;20.80;99.90
11264;DHT22;5689;48.798;9.070;2022-09-13T07:01:38;21.60;99.90
11264;DHT22;5689;48.798;9.070;2022-09-13T07:04:08;23.20;99.90
11264;DHT22;5689;48.798;9.070;2022-09-13T07:06:38;24.00;99.90
11264;DHT22;5689;48.798;9.070;2022-09-13T07:09:09;24.10;99.90
11264;DHT22;5689;48.798;9.070;2022-09-13T07:11:40;25.00;99.90
11264;DHT22;5689;48.798;9.070;2022-09-13T07:14:12;26.00;98.10
11264;DHT22;5689;48.798;9.070;2022-09-13T07:16:47;26.40;95.70
11264;DHT22;5689;48.798;9.070;2022-09-13T07:19:16;25.60;95.60
11264;DHT22;5689;48.798;9.070;2022-09-13T07:21:46;24.50;97.10
11264;DHT22;5689;48.798;9.070;2022-09-13T07:24:16;24.60;97.30
11264;DHT22;5689;48.798;9.070;2022-09-13T07:26:46;24.80;96.20
11264;DHT22;5689;48.798;9.070;2022-09-13T07:29:18;24.60;96.10
11264;DHT22;5689;48.798;9.070;2022-09-13T07:31:49;23.40;97.00
11264;DHT22;5689;48.798;9.070;2022-09-13T07:34:19;23.40;99.70
11264;DHT22;5689;48.798;9.070;2022-09-13T07:36:48;22.60;99.90
11264;DHT22;5689;48.798;9.070;2022-09-13T07:39:16;23.40;99.90
11264;DHT22;5689;48.798;9.070;2022-09-13T07:41:49;22.30;99.90
11264;DHT22;5689;48.798;9.070;2022-09-13T07:44:17;22.80;99.90
11264;DHT22;5689;48.798;9.070;2022-09-13T07:46:45;22.30;99.90
11264;DHT22;5689;48.798;9.070;2022-09-13T07:49:16;22.80;99.90
11264;DHT22;5689;48.798;9.070;2022-09-13T07:51:45;23.40;99.90
11264;DHT22;5689;48.798;9.070;2022-09-13T07:54:17;24.80;99.30
11264;DHT22;5689;48.798;9.070;2022-09-13T07:56:46;27.10;96.20
11264;DHT22;5689;48.798;9.070;2022-09-13T07:59:17;28.70;90.90
11264;DHT22;5689;48.798;9.070;2022-09-13T08:01:46;28.70;89.90
11264;DHT22;5689;48.798;9.070;2022-09-13T08:04:17;29.30;85.10
11264;DHT22;5689;48.798;9.070;2022-09-13T08:06:46;29.10;84.90
11264;DHT22;5689;48.798;9.070;2022-09-13T08:09:15;29.40;84.70
11264;DHT22;5689;48.798;9.070;2022-09-13T08:11:45;27.10;88.90
11264;DHT22;5689;48.798;9.070;2022-09-13T08:14:15;26.00;90.90
11264;DHT22;5689;48.798;9.070;2022-09-13T08:16:45;24.90;93.80
11264;DHT22;5689;48.798;9.070;2022-09-13T08:19:15;24.80;94.90
11264;DHT22;5689;48.798;9.070;2022-09-13T08:21:44;24.30;95.30
11264;DHT22;5689;48.798;9.070;2022-09-13T08:24:14;24.80;93.90
11264;DHT22;5689;48.798;9.070;2022-09-13T08:26:43;25.20;93.70
11264;DHT22;5689;48.798;9.070;2022-09-13T08:29:13;25.50;93.70
11264;DHT22;5689;48.798;9.070;2022-09-13T08:31:42;26.40;93.60
11264;DHT22;5689;48.798;9.070;2022-09-13T08:34:16;26.80;92.00
11264;DHT22;5689;48.798;9.070;2022-09-13T08:36:45;26.00;93.60
11264;DHT22;5689;48.798;9.070;2022-09-13T08:39:13;27.10;92.20
11264;DHT22;5689;48.798;9.070;2022-09-13T08:42:02;27.50;90.20
11264;DHT22;5689;48.798;9.070;2022-09-13T08:44:35;27.30;90.50
11264;DHT22;5689;48.798;9.070;2022-09-13T08:47:21;27.60;90.10
11264;DHT22;5689;48.798;9.070;2022-09-13T08:49:59;26.80;92.20
11264;DHT22;5689;48.798;9.070;2022-09-13T08:52:29;27.40;92.60
11264;DHT22;5689;48.798;9.070;2022-09-13T08:55:05;28.70;92.10
11264;DHT22;5689;48.798;9.070;2022-09-13T08:57:44;28.00;91.20
11264;DHT22;5689;48.798;9.070;2022-09-13T09:00:19;27.40;93.10
11264;DHT22;5689;48.798;9.070;2022-09-13T09:02:57;26.80;94.30
11264;DHT22;5689;48.798;9.070;2022-09-13T09:05:31;26.40;94.10
11264;DHT22;5689;48.798;9.070;2022-09-13T09:08:03;28.10;93.60
11264;DHT22;5689;48.798;9.070;2022-09-13T09:10:36;29.90;87.70
11264;DHT22;5689;48.798;9.070;2022-09-13T09:13:08;30.30;88.20
11264;DHT22;5689;48.798;9.070;2022-09-13T09:15:42;29.80;84.90
11264;DHT22;5689;48.798;9.070;2022-09-13T09:18:15;28.00;90.50
11264;DHT22;5689;48.798;9.070;2022-09-13T09:20:47;28.30;91.40
11264;DHT22;5689;48.798;9.070;2022-09-13T09:23:17;28.90;90.10
11264;DHT22;5689;48.798;9.070;2022-09-13T09:25:49;29.40;89.90
11264;DHT22;5689;48.798;9.070;2022-09-13T09:28:18;31.50;84.50
11264;DHT22;5689;48.798;9.070;2022-09-13T09:30:57;31.70;81.60
11264;DHT22;5689;48.798;9.070;2022-09-13T09:33:37;28.70;87.90
11264;DHT22;5689;48.798;9.070;2022-09-13T09:36:17;27.60;90.20
11264;DHT22;5689;48.798;9.070;2022-09-13T09:38:48;27.70;90.90
11264;DHT22;5689;48.798;9.070;2022-09-13T09:41:25;27.70;90.70
11264;DHT22;5689;48.798;9.070;2022-09-13T09:44:00;29.50;86.10
11264;DHT22;5689;48.798;9.070;2022-09-13T09:46:35;31.30;81.00
11264;DHT22;5689;48.798;9.070;2022-09-13T09:49:10;31.30;79.90
11264;DHT22;5689;48.798;9.070;2022-09-13T09:52:06;31.90;80.10
11264;DHT22;5689;48.798;9.070;2022-09-13T09:54:37;31.80;78.30
11264;DHT22;5689;48.798;9.070;2022-09-13T09:57:07;29.70;82.00
11264;DHT22;5689;48.798;9.070;2022-09-13T09:59:35;28.90;85.70
11264;DHT22;5689;48.798;9.070;2022-09-13T10:02:14;28.80;85.00
11264;DHT22;5689;48.798;9.070;2022-09-13T10:04:53;28.30;87.50
11264;DHT22;5689;48.798;9.070;2022-09-13T10:07:28;28.20;87.70
11264;DHT22;5689;48.798;9.070;2022-09-13T10:10:01;29.40;85.80
11264;DHT22;5689;48.798;9.070;2022-09-13T10:12:32;29.60;81.50
11264;DHT22;5689;48.798;9.070;2022-09-13T10:15:19;31.60;78.00
11264;DHT22;5689;48.798;9.070;2022-09-13T10:18:05;32.30;74.40
11264;DHT22;5689;48.798;9.070;2022-09-13T10:21:01;33.60;70.70
11264;DHT22;5689;48.798;9.070;2022-09-13T10:23:32;34.70;66.40
11264;DHT22;5689;48.798;9.070;2022-09-13T10:26:03;34.20;68.10
11264;DHT22;5689;48.798;9.070;2022-09-13T10:28:34;34.70;67.10
11264;DHT22;5689;48.798;9.070;2022-09-13T10:31:05;36.90;61.20
11264;DHT22;5689;48.798;9.070;2022-09-13T10:33:36;36.70;60.30
11264;DHT22;5689;48.798;9.070;2022-09-13T10:36:11;36.10;61.80
11264;DHT22;5689;48.798;9.070;2022-09-13T10:38:51;34.90;64.10
11264;DHT22;5689;48.798;9.070;2022-09-13T10:41:26;35.80;61.60
11264;DHT22;5689;48.798;9.070;2022-09-13T10:43:58;35.70;62.30
11264;DHT22;5689;48.798;9.070;2022-09-13T10:46:29;35.70;59.70
11264;DHT22;5689;48.798;9.070;2022-09-13T10:48:58;33.70;66.20
11264;DHT22;5689;48.798;9.070;2022-09-13T10:51:35;34.90;62.80
11264;DHT22;5689;48.798;9.070;2022-09-13T10:54:19;37.40;56.90
11264;DHT22;5689;48.798;9.070;2022-09-13T10:56:50;38.10;58.20
11264;DHT22;5689;48.798;9.070;2022-09-13T10:59:21;37.10;56.90
11264;DHT22;5689;48.798;9.070;2022-09-13T11:02:03;36.90;56.60
11264;DHT22;5689;48.798;9.070;2022-09-13T11:05:08;33.90;60.60
11264;DHT22;5689;48.798;9.070;2022-09-13T11:10:52;30.50;68.20
11264;DHT22;5689;48.798;9.070;2022-09-13T11:13:29;29.60;73.30
11264;DHT22;5689;48.798;9.070;2022-09-13T11:16:06;29.00;73.30
11264;DHT22;5689;48.798;9.070;2022-09-13T11:19:00;29.40;72.60
11264;DHT22;5689;48.798;9.070;2022-09-13T11:21:39;29.50;71.60
11264;DHT22;5689;48.798;9.070;2022-09-13T11:24:37;31.00;71.40
11264;DHT22;5689;48.798;9.070;2022-09-13T11:27:16;33.00;63.40
11264;DHT22;5689;48.798;9.070;2022-09-13T11:32:50;32.90;61.50
11264;DHT22;5689;48.798;9.070;2022-09-13T11:35:34;33.20;62.30
11264;DHT22;5689;48.798;9.070;2022-09-13T11:38:16;34.20;60.30
11264;DHT22;5689;48.798;9.070;2022-09-13T11:40:51;32.50;63.00
11264;DHT22;5689;48.798;9.070;2022-09-13T11:43:41;33.30;61.80
11264;DHT22;5689;48.798;9.070;2022-09-13T11:46:21;34.40;61.10
11264;DHT22;5689;48.798;9.070;2022-09-13T11:49:02;36.70;56.50
11264;DHT22;5689;48.798;9.070;2022-09-13T11:51:42;35.70;56.70
11264;DHT22;5689;48.798;9.070;2022-09-13T11:54:26;34.20;58.80
11264;DHT22;5689;48.798;9.070;2022-09-13T11:57:02;34.80;57.70
11264;DHT22;5689;48.798;9.070;2022-09-13T11:59:39;34.50;58.00
11264;DHT22;5689;48.798;9.070;2022-09-13T12:02:17;31.80;60.40
11264;DHT22;5689;48.798;9.070;2022-09-13T12:04:51;32.40;60.70
11264;DHT22;5689;48.798;9.070;2022-09-13T12:07:41;33.70;58.70
11264;DHT22;5689;48.798;9.070;2022-09-13T12:10:15;33.30;57.20
11264;DHT22;5689;48.798;9.070;2022-09-13T12:12:45;34.30;58.30
11264;DHT22;5689;48.798;9.070;2022-09-13T12:15:22;34.50;56.60
11264;DHT22;5689;48.798;9.070;2022-09-13T12:17:55;34.20;57.60
11264;DHT22;5689;48.798;9.070;2022-09-13T12:20:31;33.50;58.70
11264;DHT22;5689;48.798;9.070;2022-09-13T12:23:04;34.70;56.70
11264;DHT22;5689;48.798;9.070;2022-09-13T12:25:38;35.30;54.70
11264;DHT22;5689;48.798;9.070;2022-09-13T12:28:15;35.80;55.40
11264;DHT22;5689;48.798;9.070;2022-09-13T12:30:51;35.40;55.60
11264;DHT22;5689;48.798;9.070;2022-09-13T12:33:20;36.70;53.40
11264;DHT22;5689;48.798;9.070;2022-09-13T12:36:08;33.80;57.00
11264;DHT22;5689;48.798;9.070;2022-09-13T12:38:56;31.30;61.20
11264;DHT22;5689;48.798;9.070;2022-09-13T12:42:06;32.10;60.00
11264;DHT22;5689;48.798;9.070;2022-09-13T12:45:27;32.50;57.60
11264;DHT22;5689;48.798;9.070;2022-09-13T12:52:15;33.80;57.20
11264;DHT22;5689;48.798;9.070;2022-09-13T12:58:44;36.30;53.90
11264;DHT22;5689;48.798;9.070;2022-09-13T13:01:16;35.00;55.40
11264;DHT22;5689;48.798;9.070;2022-09-13T13:03:50;35.20;55.10
11264;DHT22;5689;48.798;9.070;2022-09-13T13:06:32;35.30;53.10
11264;DHT22;5689;48.798;9.070;2022-09-13T13:09:06;34.30;54.60
11264;DHT22;5689;48.798;9.070;2022-09-13T13:12:05;36.40;52.50
11264;DHT22;5689;48.798;9.070;2022-09-13T13:14:48;37.50;51.30
11264;DHT22;5689;48.798;9.070;2022-09-13T13:17:44;37.30;51.80
11264;DHT22;5689;48.798;9.070;2022-09-13T13:20:43;39.90;49.10
11264;DHT22;5689;48.798;9.070;2022-09-13T13:23:19;39.30;49.20
11264;DHT22;5689;48.798;9.070;2022-09-13T13:26:10;40.70;47.30
11264;DHT22;5689;48.798;9.070;2022-09-13T13:31:36;40.00;46.40
11264;DHT22;5689;48.798;9.070;2022-09-13T13:34:39;38.90;45.80
11264;DHT22;5689;48.798;9.070;2022-09-13T13:37:34;36.80;49.30
11264;DHT22;5689;48.798;9.070;2022-09-13T13:40:19;38.60;47.90
11264;DHT22;5689;48.798;9.070;2022-09-13T13:42:48;38.80;47.60
11264;DHT22;5689;48.798;9.070;2022-09-13T13:45:20;38.90;45.70
11264;DHT22;5689;48.798;9.070;2022-09-13T13:47:55;37.50;45.60
11264;DHT22;5689;48.798;9.070;2022-09-13T13:50:32;35.00;49.90
11264;DHT22;5689;48.798;9.070;2022-09-13T13:53:20;33.50;54.00
11264;DHT22;5689;48.798;9.070;2022-09-13T13:56:06;34.00;52.50
11264;DHT22;5689;48.798;9.070;2022-09-13T13:58:45;34.60;53.60
11264;DHT22;5689;48.798;9.070;2022-09-13T14:01:17;33.90;52.20
11264;DHT22;5689;48.798;9.070;2022-09-13T14:03:57;32.80;53.00
11264;DHT22;5689;48.798;9.070;2022-09-13T14:06:33;32.40;55.00
11264;DHT22;5689;48.798;9.070;2022-09-13T14:09:14;32.50;53.60
11264;DHT22;5689;48.798;9.070;2022-09-13T14:11:57;31.60;54.00
11264;DHT22;5689;48.798;9.070;2022-09-13T14:14:35;32.10;53.70
11264;DHT22;5689;48.798;9.070;2022-09-13T14:17:32;33.60;52.50
11264;DHT22;5689;48.798;9.070;2022-09-13T14:20:06;33.70;51.60
11264;DHT22;5689;48.798;9.070;2022-09-13T14:22:36;33.90;50.60
11264;DHT22;5689;48.798;9.070;2022-09-13T14:25:20;33.00;51.20
11264;DHT22;5689;48.798;9.070;2022-09-13T14:27:54;32.60;52.20
11264;DHT22;5689;48.798;9.070;2022-09-13T14:30:30;34.60;50.60
11264;DHT22;5689;48.798;9.070;2022-09-13T14:33:00;36.60;49.40
11264;DHT22;5689;48.798;9.070;2022-09-13T14:35:29;35.50;47.20
11264;DHT22;5689;48.798;9.070;2022-09-13T14:38:09;33.60;49.80
11264;DHT22;5689;48.798;9.070;2022-09-13T14:40:39;32.30;50.10
11264;DHT22;5689;48.798;9.070;2022-09-13T14:43:15;32.30;51.40
11264;DHT22;5689;48.798;9.070;2022-09-13T14:45:45;34.20;50.80
11264;DHT22;5689;48.798;9.070;2022-09-13T14:48:18;36.40;47.20
11264;DHT22;5689;48.798;9.070;2022-09-13T14:50:51;35.10;47.90
11264;DHT22;5689;48.798;9.070;2022-09-13T14:53:23;34.40;48.30
11264;DHT22;5689;48.798;9.070;2022-09-13T14:55:54;33.00;49.20
11264;DHT22;5689;48.798;9.070;2022-09-13T14:58:27;32.20;50.50
11264;DHT22;5689;48.798;9.070;2022-09-13T15:00:58;32.40;50.90
11264;DHT22;5689;48.798;9.070;2022-09-13T15:03:26;32.20;51.10
11264;DHT22;5689;48.798;9.070;2022-09-13T15:05:56;32.30;50.30
11264;DHT22;5689;48.798;9.070;2022-09-13T15:08:36;32.60;50.80
11264;DHT22;5689;48.798;9.070;2022-09-13T15:11:14;32.50;50.40
11264;DHT22;5689;48.798;9.070;2022-09-13T15:13:43;32.50;50.50
11264;DHT22;5689;48.798;9.070;2022-09-13T15:16:24;31.70;52.30
11264;DHT22;5689;48.798;9.070;2022-09-13T15:19:16;32.40;51.50
11264;DHT22;5689;48.798;9.070;2022-09-13T15:22:00;33.00;50.70
11264;DHT22;5689;48.798;9.070;2022-09-13T15:24:30;33.50;51.10
11264;DHT22;5689;48.798;9.070;2022-09-13T15:27:06;32.60;50.80
11264;DHT22;5689;48.798;9.070;2022-09-13T15:29:34;32.00;52.10
11264;DHT22;5689;48.798;9.070;2022-09-13T15:32:03;31.90;52.10
11264;DHT22;5689;48.798;9.070;2022-09-13T15:34:32;31.50;53.00
11264;DHT22;5689;48.798;9.070;2022-09-13T15:37:11;30.40;53.10
11264;DHT22;5689;48.798;9.070;2022-09-13T15:39:44;29.80;54.50
11264;DHT22;5689;48.798;9.070;2022-09-13T15:42:15;29.80;54.30
11264;DHT22;5689;48.798;9.070;2022-09-13T15:44:43;29.60;54.90
11264;DHT22;5689;48.798;9.070;2022-09-13T15:47:16;29.40;55.70
11264;DHT22;5689;48.798;9.070;2022-09-13T15:49:48;29.40;56.60
11264;DHT22;5689;48.798;9.070;2022-09-13T15:52:17;29.00;55.90
11264;DHT22;5689;48.798;9.070;2022-09-13T15:54:47;28.90;57.00
11264;DHT22;5689;48.798;9.070;2022-09-13T15:57:21;28.60;56.00
11264;DHT22;5689;48.798;9.070;2022-09-13T15:59:50;28.10;57.30
11264;DHT22;5689;48.798;9.070;2022-09-13T16:02:20;28.10;57.60
11264;DHT22;5689;48.798;9.070;2022-09-13T16:04:48;28.30;58.10
11264;DHT22;5689;48.798;9.070;2022-09-13T16:07:17;28.20;58.20
11264;DHT22;5689;48.798;9.070;2022-09-13T16:09:45;28.00;58.80
11264;DHT22;5689;48.798;9.070;2022-09-13T16:12:16;28.20;59.40
11264;DHT22;5689;48.798;9.070;2022-09-13T16:14:45;28.20;58.90
11264;DHT22;5689;48.798;9.070;2022-09-13T16:17:18;28.20;59.00
11264;DHT22;5689;48.798;9.070;2022-09-13T16:19:47;27.90;58.50
11264;DHT22;5689;48.798;9.070;2022-09-13T16:22:15;27.90;58.60
11264;DHT22;5689;48.798;9.070;2022-09-13T16:24:43;27.60;58.60
11264;DHT22;5689;48.798;9.070;2022-09-13T16:27:11;27.40;59.40
11264;DHT22;5689;48.798;9.070;2022-09-13T16:29:41;27.20;61.00
11264;DHT22;5689;48.798;9.070;2022-09-13T16:32:10;27.20;61.40
11264;DHT22;5689;48.798;9.070;2022-09-13T16:34:38;27.00;60.80
11264;DHT22;5689;48.798;9.070;2022-09-13T16:37:06;26.80;62.20
11264;DHT22;5689;48.798;9.070;2022-09-13T16:39:34;26.80;62.60
11264;DHT22;5689;48.798;9.070;2022-09-13T16:42:02;26.70;63.60
11264;DHT22;5689;48.798;9.070;2022-09-13T16:44:31;26.60;64.20
11264;DHT22;5689;48.798;9.070;2022-09-13T16:47:00;26.40;63.80
11264;DHT22;5689;48.798;9.070;2022-09-13T16:49:28;26.30;64.20